sensor_id;sensor_type;location;lat;lon;timestamp;temperature;humidity
3310;DHT22;1667;53.238;10.394;2022-10-16T00:00:13;17.20;99.90
3310;DHT22;1667;53.238;10.394;2022-10-16T00:05:12;17.20;99.90
3310;DHT22;1667;53.238;10.394;2022-10-16T00:10:10;17.10;99.90
3310;DHT22;1667;53.238;10.394;2022-10-16T00:15:09;17.00;99.90
3310;DHT22;1667;53.238;10.394;2022-10-16T00:20:08;17.00;99.90
3310;DHT22;1667;53.238;10.394;2022-10-16T00:25:06;16.90;99.90
3310;DHT22;1667;53.238;10.394;2022-10-16T00:30:06;16.90;99.90
3310;DHT22;1667;53.238;10.394;2022-10-16T00:35:06;16.90;99.90
3310;DHT22;1667;53.238;10.394;2022-10-16T00:40:06;16.80;99.90
3310;DHT22;1667;53.238;10.394;2022-10-16T00:45:06;16.80;99.90
3310;DHT22;1667;53.238;10.394;2022-10-16T00:50:08;16.80;99.90
3310;DHT22;1667;53.238;10.394;2022-10-16T00:55:08;16.70;99.90
3310;DHT22;1667;53.238;10.394;2022-10-16T01:00:10;16.70;99.90
3310;DHT22;1667;53.238;10.394;2022-10-16T01:05:10;16.60;99.90
3310;DHT22;1667;53.238;10.394;2022-10-16T01:10:17;16.60;99.90
3310;DHT22;1667;53.238;10.394;2022-10-16T01:15:25;16.60;99.90
3310;DHT22;1667;53.238;10.394;2022-10-16T01:20:29;16.60;99.90
3310;DHT22;1667;53.238;10.394;2022-10-16T01:25:39;16.50;99.90
3310;DHT22;1667;53.238;10.394;2022-10-16T01:30:42;16.50;99.90
3310;DHT22;1667;53.238;10.394;2022-10-16T01:35:44;16.50;99.90
3310;DHT22;1667;53.238;10.394;2022-10-16T01:40:47;16.40;99.90
3310;DHT22;1667;53.238;10.394;2022-10-16T01:45:48;16.40;99.90
3310;DHT22;1667;53.238;10.394;2022-10-16T01:50:52;16.30;99.90
3310;DHT22;1667;53.238;10.394;2022-10-16T01:55:52;16.30;99.90
3310;DHT22;1667;53.238;10.394;2022-10-16T02:00:54;16.30;99.90
3310;DHT22;1667;53.238;10.394;2022-10-16T02:05:55;16.30;99.90
3310;DHT22;1667;53.238;10.394;2022-10-16T02:10:54;16.20;99.90
3310;DHT22;1667;53.238;10.394;2022-10-16T02:15:54;16.20;99.90
3310;DHT22;1667;53.238;10.394;2022-10-16T02:20:57;16.10;99.90
3310;DHT22;1667;53.238;10.394;2022-10-16T02:25:58;16.10;99.90
3310;DHT22;1667;53.238;10.394;2022-10-16T02:31:01;16.10;99.90
3310;DHT22;1667;53.238;10.394;2022-10-16T02:36:01;16.00;99.90
3310;DHT22;1667;53.238;10.394;2022-10-16T02:41:00;16.00;99.90
3310;DHT22;1667;53.238;10.394;2022-10-16T02:45:59;15.90;99.90
3310;DHT22;1667;53.238;10.394;2022-10-16T02:50:58;15.90;99.90
3310;DHT22;1667;53.238;10.394;2022-10-16T02:55:56;15.90;99.90
3310;DHT22;1667;53.238;10.394;2022-10-16T03:00:55;15.80;99.90
3310;DHT22;1667;53.238;10.394;2022-10-16T03:05:54;15.80;99.90
3310;DHT22;1667;53.238;10.394;2022-10-16T03:10:53;15.80;99.90
3310;DHT22;1667;53.238;10.394;2022-10-16T03:15:51;15.80;99.90
3310;DHT22;1667;53.238;10.394;2022-10-16T03:20:49;15.70;99.90
3310;DHT22;1667;53.238;10.394;2022-10-16T03:25:48;15.70;99.90
3310;DHT22;1667;53.238;10.394;2022-10-16T03:30:46;15.70;99.90
3310;DHT22;1667;53.238;10.394;2022-10-16T03:35:51;15.60;99.90
3310;DHT22;1667;53.238;10.394;2022-10-16T03:40:51;15.60;99.90
3310;DHT22;1667;53.238;10.394;2022-10-16T03:45:50;15.60;99.90
3310;DHT22;1667;53.238;10.394;2022-10-16T03:50:48;15.60;99.90
3310;DHT22;1667;53.238;10.394;2022-10-16T03:55:47;15.50;99.90
3310;DHT22;1667;53.238;10.394;2022-10-16T04:00:46;15.50;99.90
3310;DHT22;1667;53.238;10.394;2022-10-16T04:05:45;15.40;99.90
3310;DHT22;1667;53.238;10.394;2022-10-16T04:10:43;15.40;99.90
3310;DHT22;1667;53.238;10.394;2022-10-16T04:15:41;15.40;99.90
3310;DHT22;1667;53.238;10.394;2022-10-16T04:20:41;15.40;99.90
3310;DHT22;1667;53.238;10.394;2022-10-16T04:25:39;15.40;99.90
3310;DHT22;1667;53.238;10.394;2022-10-16T04:30:38;15.40;99.90
3310;DHT22;1667;53.238;10.394;2022-10-16T04:35:36;15.30;99.90
3310;DHT22;1667;53.238;10.394;2022-10-16T04:40:36;15.30;99.90
3310;DHT22;1667;53.238;10.394;2022-10-16T04:45:34;15.30;99.90
3310;DHT22;1667;53.238;10.394;2022-10-16T04:50:32;15.30;99.90
3310;DHT22;1667;53.238;10.394;2022-10-16T04:55:35;15.30;99.90
3310;DHT22;1667;53.238;10.394;2022-10-16T05:00:34;15.30;99.90
3310;DHT22;1667;53.238;10.394;2022-10-16T05:05:32;15.30;99.90
3310;DHT22;1667;53.238;10.394;2022-10-16T05:10:31;15.30;99.90
3310;DHT22;1667;53.238;10.394;2022-10-16T05:15:31;15.20;99.90
3310;DHT22;1667;53.238;10.394;2022-10-16T05:20:29;15.30;99.90
3310;DHT22;1667;53.238;10.394;2022-10-16T05:25:27;15.20;99.90
3310;DHT22;1667;53.238;10.394;2022-10-16T05:30:25;15.20;99.90
3310;DHT22;1667;53.238;10.394;2022-10-16T05:35:25;15.20;99.90
3310;DHT22;1667;53.238;10.394;2022-10-16T05:40:23;15.20;99.90
3310;DHT22;1667;53.238;10.394;2022-10-16T05:45:21;15.20;99.90
3310;DHT22;1667;53.238;10.394;2022-10-16T05:50:19;15.20;99.90
3310;DHT22;1667;53.238;10.394;2022-10-16T05:55:19;15.20;99.90
3310;DHT22;1667;53.238;10.394;2022-10-16T06:00:17;15.10;99.90
3310;DHT22;1667;53.238;10.394;2022-10-16T06:05:15;15.10;99.90
3310;DHT22;1667;53.238;10.394;2022-10-16T06:10:13;15.10;99.90
3310;DHT22;1667;53.238;10.394;2022-10-16T06:15:13;15.10;99.90
3310;DHT22;1667;53.238;10.394;2022-10-16T06:20:11;15.10;99.90
3310;DHT22;1667;53.238;10.394;2022-10-16T06:25:09;15.10;99.90
3310;DHT22;1667;53.238;10.394;2022-10-16T06:30:08;15.10;99.90
3310;DHT22;1667;53.238;10.394;2022-10-16T06:35:08;15.10;99.90
3310;DHT22;1667;53.238;10.394;2022-10-16T06:40:07;15.10;99.90
3310;DHT22;1667;53.238;10.394;2022-10-16T06:45:06;15.00;99.90
3310;DHT22;1667;53.238;10.394;2022-10-16T06:50:05;15.00;99.90
3310;DHT22;1667;53.238;10.394;2022-10-16T06:55:06;15.00;99.90
3310;DHT22;1667;53.238;10.394;2022-10-16T07:00:06;15.00;99.90
3310;DHT22;1667;53.238;10.394;2022-10-16T07:05:04;15.00;99.90
3310;DHT22;1667;53.238;10.394;2022-10-16T07:10:03;15.00;99.90
3310;DHT22;1667;53.238;10.394;2022-10-16T07:15:03;15.00;99.90
3310;DHT22;1667;53.238;10.394;2022-10-16T07:20:01;15.10;99.90
3310;DHT22;1667;53.238;10.394;2022-10-16T07:24:59;15.10;99.90
3310;DHT22;1667;53.238;10.394;2022-10-16T07:29:57;15.10;99.90
3310;DHT22;1667;53.238;10.394;2022-10-16T07:35:04;15.10;99.90
3310;DHT22;1667;53.238;10.394;2022-10-16T07:40:03;15.10;99.90
3310;DHT22;1667;53.238;10.394;2022-10-16T07:45:01;15.20;99.90
3310;DHT22;1667;53.238;10.394;2022-10-16T07:49:59;15.30;99.90
3310;DHT22;1667;53.238;10.394;2022-10-16T07:54:58;15.30;99.90
3310;DHT22;1667;53.238;10.394;2022-10-16T07:59:56;15.40;99.90
3310;DHT22;1667;53.238;10.394;2022-10-16T08:04:55;15.50;99.90
3310;DHT22;1667;53.238;10.394;2022-10-16T08:09:53;15.60;99.90
3310;DHT22;1667;53.238;10.394;2022-10-16T08:14:54;15.70;99.90
3310;DHT22;1667;53.238;10.394;2022-10-16T08:19:52;15.80;99.90
3310;DHT22;1667;53.238;10.394;2022-10-16T08:24:50;16.00;99.90
3310;DHT22;1667;53.238;10.394;2022-10-16T08:29:49;16.20;99.90
3310;DHT22;1667;53.238;10.394;2022-10-16T08:34:48;16.20;99.90
3310;DHT22;1667;53.238;10.394;2022-10-16T08:39:46;16.30;99.90
3310;DHT22;1667;53.238;10.394;2022-10-16T08:50:18;16.60;99.90
3310;DHT22;1667;53.238;10.394;2022-10-16T08:55:41;16.70;99.90
3310;DHT22;1667;53.238;10.394;2022-10-16T09:00:40;16.90;99.90
3310;DHT22;1667;53.238;10.394;2022-10-16T09:05:54;17.00;99.90
3310;DHT22;1667;53.238;10.394;2022-10-16T09:10:58;17.10;99.90
3310;DHT22;1667;53.238;10.394;2022-10-16T09:23:07;17.50;99.90
3310;DHT22;1667;53.238;10.394;2022-10-16T09:28:08;17.60;99.90
3310;DHT22;1667;53.238;10.394;2022-10-16T09:33:07;17.80;99.90
3310;DHT22;1667;53.238;10.394;2022-10-16T09:38:07;17.90;99.90
3310;DHT22;1667;53.238;10.394;2022-10-16T09:49:57;18.30;99.90
3310;DHT22;1667;53.238;10.394;2022-10-16T09:55:01;18.50;99.90
3310;DHT22;1667;53.238;10.394;2022-10-16T10:00:09;18.60;99.90
3310;DHT22;1667;53.238;10.394;2022-10-16T10:05:18;18.80;99.90
3310;DHT22;1667;53.238;10.394;2022-10-16T10:10:23;18.90;99.90
3310;DHT22;1667;53.238;10.394;2022-10-16T10:15:33;19.00;99.90
3310;DHT22;1667;53.238;10.394;2022-10-16T10:20:33;19.00;99.90
3310;DHT22;1667;53.238;10.394;2022-10-16T10:25:45;19.20;99.90
3310;DHT22;1667;53.238;10.394;2022-10-16T10:30:52;19.30;99.90
3310;DHT22;1667;53.238;10.394;2022-10-16T10:36:03;19.40;99.90
3310;DHT22;1667;53.238;10.394;2022-10-16T10:41:14;19.60;99.90
3310;DHT22;1667;53.238;10.394;2022-10-16T10:46:23;19.70;99.90
3310;DHT22;1667;53.238;10.394;2022-10-16T10:51:31;19.80;99.90
3310;DHT22;1667;53.238;10.394;2022-10-16T10:56:45;19.90;99.90
3310;DHT22;1667;53.238;10.394;2022-10-16T11:01:51;20.00;99.90
3310;DHT22;1667;53.238;10.394;2022-10-16T11:06:55;20.10;99.90
3310;DHT22;1667;53.238;10.394;2022-10-16T11:18:58;20.30;99.90
3310;DHT22;1667;53.238;10.394;2022-10-16T11:24:01;20.40;99.90
3310;DHT22;1667;53.238;10.394;2022-10-16T11:29:05;20.50;99.90
3310;DHT22;1667;53.238;10.394;2022-10-16T11:34:16;20.60;99.90
3310;DHT22;1667;53.238;10.394;2022-10-16T11:39:20;20.70;99.90
3310;DHT22;1667;53.238;10.394;2022-10-16T11:44:38;20.80;99.90
3310;DHT22;1667;53.238;10.394;2022-10-16T11:49:40;21.00;99.90
3310;DHT22;1667;53.238;10.394;2022-10-16T11:54:45;21.10;99.90
3310;DHT22;1667;53.238;10.394;2022-10-16T11:59:50;21.20;99.80
3310;DHT22;1667;53.238;10.394;2022-10-16T12:04:55;21.20;99.50
3310;DHT22;1667;53.238;10.394;2022-10-16T12:09:57;21.30;99.50
3310;DHT22;1667;53.238;10.394;2022-10-16T12:15:01;21.40;98.70
3310;DHT22;1667;53.238;10.394;2022-10-16T12:20:28;21.50;98.50
3310;DHT22;1667;53.238;10.394;2022-10-16T12:25:30;21.60;98.50
3310;DHT22;1667;53.238;10.394;2022-10-16T12:30:31;21.60;98.00
3310;DHT22;1667;53.238;10.394;2022-10-16T12:35:35;21.70;98.90
3310;DHT22;1667;53.238;10.394;2022-10-16T12:40:42;21.60;97.60
3310;DHT22;1667;53.238;10.394;2022-10-16T12:45:41;21.60;97.60
3310;DHT22;1667;53.238;10.394;2022-10-16T12:50:40;21.60;97.30
3310;DHT22;1667;53.238;10.394;2022-10-16T12:55:47;21.60;97.50
3310;DHT22;1667;53.238;10.394;2022-10-16T13:07:52;21.60;97.30
3310;DHT22;1667;53.238;10.394;2022-10-16T13:13:29;21.60;97.70
3310;DHT22;1667;53.238;10.394;2022-10-16T13:18:40;21.60;97.90
3310;DHT22;1667;53.238;10.394;2022-10-16T13:23:48;21.60;97.30
3310;DHT22;1667;53.238;10.394;2022-10-16T13:42:06;21.70;96.50
3310;DHT22;1667;53.238;10.394;2022-10-16T13:47:05;21.90;96.60
3310;DHT22;1667;53.238;10.394;2022-10-16T13:52:33;22.00;95.70
3310;DHT22;1667;53.238;10.394;2022-10-16T13:57:32;22.00;95.90
3310;DHT22;1667;53.238;10.394;2022-10-16T14:02:33;22.00;94.70
3310;DHT22;1667;53.238;10.394;2022-10-16T14:07:34;22.10;94.10
3310;DHT22;1667;53.238;10.394;2022-10-16T14:12:34;22.10;94.90
3310;DHT22;1667;53.238;10.394;2022-10-16T14:17:34;22.20;94.80
3310;DHT22;1667;53.238;10.394;2022-10-16T14:22:35;22.20;94.20
3310;DHT22;1667;53.238;10.394;2022-10-16T14:27:35;22.20;95.20
3310;DHT22;1667;53.238;10.394;2022-10-16T14:32:34;22.20;94.50
3310;DHT22;1667;53.238;10.394;2022-10-16T14:37:33;22.20;94.00
3310;DHT22;1667;53.238;10.394;2022-10-16T14:42:31;22.20;94.20
3310;DHT22;1667;53.238;10.394;2022-10-16T14:47:31;22.20;94.10
3310;DHT22;1667;53.238;10.394;2022-10-16T14:52:29;22.20;93.30
3310;DHT22;1667;53.238;10.394;2022-10-16T14:57:29;22.10;93.60
3310;DHT22;1667;53.238;10.394;2022-10-16T15:02:32;22.00;93.80
3310;DHT22;1667;53.238;10.394;2022-10-16T15:07:31;21.90;93.60
3310;DHT22;1667;53.238;10.394;2022-10-16T15:12:29;21.80;93.50
3310;DHT22;1667;53.238;10.394;2022-10-16T15:17:27;21.60;93.20
3310;DHT22;1667;53.238;10.394;2022-10-16T15:22:27;21.50;93.10
3310;DHT22;1667;53.238;10.394;2022-10-16T15:27:25;21.40;93.30
3310;DHT22;1667;53.238;10.394;2022-10-16T15:32:23;21.30;93.50
3310;DHT22;1667;53.238;10.394;2022-10-16T15:37:22;21.10;93.40
3310;DHT22;1667;53.238;10.394;2022-10-16T15:42:22;21.00;93.70
3310;DHT22;1667;53.238;10.394;2022-10-16T15:47:20;20.90;93.90
3310;DHT22;1667;53.238;10.394;2022-10-16T15:52:19;20.70;94.40
3310;DHT22;1667;53.238;10.394;2022-10-16T15:57:17;20.60;94.80
3310;DHT22;1667;53.238;10.394;2022-10-16T16:02:16;20.50;94.70
3310;DHT22;1667;53.238;10.394;2022-10-16T16:07:14;20.40;95.10
3310;DHT22;1667;53.238;10.394;2022-10-16T16:12:12;20.30;96.20
3310;DHT22;1667;53.238;10.394;2022-10-16T16:17:11;20.20;95.50
3310;DHT22;1667;53.238;10.394;2022-10-16T16:22:10;20.00;96.40
3310;DHT22;1667;53.238;10.394;2022-10-16T16:27:20;19.90;96.50
3310;DHT22;1667;53.238;10.394;2022-10-16T16:32:22;19.80;96.80
3310;DHT22;1667;53.238;10.394;2022-10-16T16:37:21;19.70;96.90
3310;DHT22;1667;53.238;10.394;2022-10-16T16:42:20;19.50;97.00
3310;DHT22;1667;53.238;10.394;2022-10-16T16:47:18;19.40;97.30
3310;DHT22;1667;53.238;10.394;2022-10-16T16:52:16;19.30;97.40
3310;DHT22;1667;53.238;10.394;2022-10-16T16:57:41;19.20;97.70
3310;DHT22;1667;53.238;10.394;2022-10-16T17:02:39;19.00;97.90
3310;DHT22;1667;53.238;10.394;2022-10-16T17:07:39;18.90;97.60
3310;DHT22;1667;53.238;10.394;2022-10-16T17:12:38;18.80;97.40
3310;DHT22;1667;53.238;10.394;2022-10-16T17:17:37;18.70;97.60
3310;DHT22;1667;53.238;10.394;2022-10-16T17:22:36;18.60;97.60
3310;DHT22;1667;53.238;10.394;2022-10-16T17:27:38;18.50;97.80
3310;DHT22;1667;53.238;10.394;2022-10-16T17:32:37;18.30;97.90
3310;DHT22;1667;53.238;10.394;2022-10-16T17:37:36;18.20;97.90
3310;DHT22;1667;53.238;10.394;2022-10-16T17:42:34;18.10;98.10
3310;DHT22;1667;53.238;10.394;2022-10-16T17:47:32;18.00;98.10
3310;DHT22;1667;53.238;10.394;2022-10-16T17:52:31;17.90;98.20
3310;DHT22;1667;53.238;10.394;2022-10-16T17:57:29;17.80;98.20
3310;DHT22;1667;53.238;10.394;2022-10-16T18:02:28;17.70;98.30
3310;DHT22;1667;53.238;10.394;2022-10-16T18:07:26;17.60;98.30
3310;DHT22;1667;53.238;10.394;2022-10-16T18:12:26;17.50;98.50
3310;DHT22;1667;53.238;10.394;2022-10-16T18:17:36;17.40;98.60
3310;DHT22;1667;53.238;10.394;2022-10-16T18:22:35;17.40;98.70
3310;DHT22;1667;53.238;10.394;2022-10-16T18:27:35;17.20;98.70
3310;DHT22;1667;53.238;10.394;2022-10-16T18:32:33;17.20;98.90
3310;DHT22;1667;53.238;10.394;2022-10-16T18:37:34;17.10;99.00
3310;DHT22;1667;53.238;10.394;2022-10-16T18:42:32;17.10;99.00
3310;DHT22;1667;53.238;10.394;2022-10-16T18:47:32;17.00;99.10
3310;DHT22;1667;53.238;10.394;2022-10-16T18:52:30;16.90;99.10
3310;DHT22;1667;53.238;10.394;2022-10-16T18:57:28;16.80;99.20
3310;DHT22;1667;53.238;10.394;2022-10-16T19:02:26;16.80;99.30
3310;DHT22;1667;53.238;10.394;2022-10-16T19:07:26;16.70;99.40
3310;DHT22;1667;53.238;10.394;2022-10-16T19:12:25;16.60;99.40
3310;DHT22;1667;53.238;10.394;2022-10-16T19:17:23;16.60;99.50
3310;DHT22;1667;53.238;10.394;2022-10-16T19:22:21;16.50;99.90
3310;DHT22;1667;53.238;10.394;2022-10-16T19:27:38;16.50;99.70
3310;DHT22;1667;53.238;10.394;2022-10-16T19:32:36;16.40;99.80
3310;DHT22;1667;53.238;10.394;2022-10-16T19:37:34;16.40;99.90
3310;DHT22;1667;53.238;10.394;2022-10-16T19:42:32;16.30;99.90
3310;DHT22;1667;53.238;10.394;2022-10-16T19:47:33;16.30;99.60
3310;DHT22;1667;53.238;10.394;2022-10-16T19:52:32;16.30;99.90
3310;DHT22;1667;53.238;10.394;2022-10-16T19:57:32;16.20;99.90
3310;DHT22;1667;53.238;10.394;2022-10-16T20:02:32;16.20;99.90
3310;DHT22;1667;53.238;10.394;2022-10-16T20:07:31;16.20;99.90
3310;DHT22;1667;53.238;10.394;2022-10-16T20:12:30;16.20;99.90
3310;DHT22;1667;53.238;10.394;2022-10-16T20:17:29;16.20;99.90
3310;DHT22;1667;53.238;10.394;2022-10-16T20:22:28;16.10;99.90
3310;DHT22;1667;53.238;10.394;2022-10-16T20:27:26;16.10;99.90
3310;DHT22;1667;53.238;10.394;2022-10-16T20:32:25;16.00;99.90
3310;DHT22;1667;53.238;10.394;2022-10-16T20:37:23;16.00;99.90
3310;DHT22;1667;53.238;10.394;2022-10-16T20:42:23;16.00;99.90
3310;DHT22;1667;53.238;10.394;2022-10-16T20:47:22;15.90;99.90
3310;DHT22;1667;53.238;10.394;2022-10-16T20:52:20;15.90;99.90
3310;DHT22;1667;53.238;10.394;2022-10-16T20:57:18;15.90;99.90
3310;DHT22;1667;53.238;10.394;2022-10-16T21:08:09;15.80;99.90
3310;DHT22;1667;53.238;10.394;2022-10-16T21:13:07;15.80;99.90
3310;DHT22;1667;53.238;10.394;2022-10-16T21:18:05;15.80;99.90
3310;DHT22;1667;53.238;10.394;2022-10-16T21:23:04;15.80;99.90
3310;DHT22;1667;53.238;10.394;2022-10-16T21:28:03;15.80;99.90
3310;DHT22;1667;53.238;10.394;2022-10-16T21:33:01;15.80;99.90
3310;DHT22;1667;53.238;10.394;2022-10-16T21:37:59;15.80;99.90
3310;DHT22;1667;53.238;10.394;2022-10-16T21:42:57;15.70;99.90
3310;DHT22;1667;53.238;10.394;2022-10-16T21:47:57;15.70;99.90
3310;DHT22;1667;53.238;10.394;2022-10-16T21:53:10;15.70;99.90
3310;DHT22;1667;53.238;10.394;2022-10-16T21:58:08;15.70;99.90
3310;DHT22;1667;53.238;10.394;2022-10-16T22:03:07;15.80;99.90
3310;DHT22;1667;53.238;10.394;2022-10-16T22:08:05;15.60;99.90
3310;DHT22;1667;53.238;10.394;2022-10-16T22:13:04;15.60;99.90
3310;DHT22;1667;53.238;10.394;2022-10-16T22:18:02;15.70;99.90
3310;DHT22;1667;53.238;10.394;2022-10-16T22:23:01;15.60;99.90
3310;DHT22;1667;53.238;10.394;2022-10-16T22:27:59;15.60;99.90
3310;DHT22;1667;53.238;10.394;2022-10-16T22:32:57;15.70;99.90
3310;DHT22;1667;53.238;10.394;2022-10-16T22:37:55;15.70;99.90
3310;DHT22;1667;53.238;10.394;2022-10-16T22:42:55;15.60;99.90
3310;DHT22;1667;53.238;10.394;2022-10-16T22:47:54;15.60;99.90
3310;DHT22;1667;53.238;10.394;2022-10-16T22:52:52;15.60;99.90
3310;DHT22;1667;53.238;10.394;2022-10-16T22:57:50;15.60;99.90
3310;DHT22;1667;53.238;10.394;2022-10-16T23:02:50;15.60;99.90
3310;DHT22;1667;53.238;10.394;2022-10-16T23:07:48;15.60;99.90
3310;DHT22;1667;53.238;10.394;2022-10-16T23:12:46;15.60;99.90
3310;DHT22;1667;53.238;10.394;2022-10-16T23:17:44;15.60;99.90
3310;DHT22;1667;53.238;10.394;2022-10-16T23:22:43;15.60;99.90
3310;DHT22;1667;53.238;10.394;2022-10-16T23:27:42;15.60;99.90
3310;DHT22;1667;53.238;10.394;2022-10-16T23:32:40;15.60;99.90
3310;DHT22;1667;53.238;10.394;2022-10-16T23:37:38;15.60;99.90
3310;DHT22;1667;53.238;10.394;2022-10-16T23:42:38;15.60;99.90
3310;DHT22;1667;53.238;10.394;2022-10-16T23:47:36;15.70;99.90
3310;DHT22;1667;53.238;10.394;2022-10-16T23:52:34;15.70;99.90
3310;DHT22;1667;53.238;10.394;2022-10-16T23:57:32;15.70;99.90
